sensor_id;sensor_type;location;lat;lon;timestamp;pressure;altitude;pressure_sealevel;temperature;humidity
63535;BME280;55128;50.230;18.944;2023-02-16T00:03:47;99360.50;;;-0.13;76.59
63535;BME280;55128;50.230;18.944;2023-02-16T00:08:50;99357.00;;;-0.17;76.22
63535;BME280;55128;50.230;18.944;2023-02-16T00:13:51;99354.34;;;-0.23;76.28
63535;BME280;55128;50.230;18.944;2023-02-16T00:18:53;99350.81;;;-0.28;76.10
63535;BME280;55128;50.230;18.944;2023-02-16T00:23:53;99350.75;;;-0.37;76.41
63535;BME280;55128;50.230;18.944;2023-02-16T00:28:55;99354.19;;;-0.38;76.68
63535;BME280;55128;50.230;18.944;2023-02-16T00:34:25;99347.97;;;-0.51;76.58
63535;BME280;55128;50.230;18.944;2023-02-16T00:39:26;99340.91;;;-0.65;76.32
63535;BME280;55128;50.230;18.944;2023-02-16T00:44:44;99335.75;;;-0.60;76.98
63535;BME280;55128;50.230;18.944;2023-02-16T00:49:51;99328.69;;;-0.69;77.01
63535;BME280;55128;50.230;18.944;2023-02-16T00:54:51;99321.66;;;-0.76;77.27
63535;BME280;55128;50.230;18.944;2023-02-16T00:59:59;99323.41;;;-0.75;77.12
63535;BME280;55128;50.230;18.944;2023-02-16T01:05:01;99313.81;;;-0.77;76.94
63535;BME280;55128;50.230;18.944;2023-02-16T01:10:02;99305.97;;;-0.82;76.94
63535;BME280;55128;50.230;18.944;2023-02-16T01:15:23;99311.97;;;-0.88;77.31
63535;BME280;55128;50.230;18.944;2023-02-16T01:20:25;99297.16;;;-0.93;76.96
63535;BME280;55128;50.230;18.944;2023-02-16T01:25:26;99298.94;;;-0.88;76.94
63535;BME280;55128;50.230;18.944;2023-02-16T01:30:27;99299.78;;;-0.89;76.83
63535;BME280;55128;50.230;18.944;2023-02-16T01:35:30;99296.31;;;-0.91;76.41
63535;BME280;55128;50.230;18.944;2023-02-16T01:45:33;99292.75;;;-0.96;76.44
63535;BME280;55128;50.230;18.944;2023-02-16T01:55:47;99287.44;;;-1.05;76.73
63535;BME280;55128;50.230;18.944;2023-02-16T02:05:49;99286.56;;;-1.09;76.56
63535;BME280;55128;50.230;18.944;2023-02-16T02:11:14;99283.03;;;-1.12;76.43
63535;BME280;55128;50.230;18.944;2023-02-16T02:16:19;99270.00;;;-1.14;76.79
63535;BME280;55128;50.230;18.944;2023-02-16T02:27:30;99275.22;;;-1.12;78.04
63535;BME280;55128;50.230;18.944;2023-02-16T02:33:19;99282.22;;;-1.05;77.13
63535;BME280;55128;50.230;18.944;2023-02-16T02:38:04;99275.28;;;-1.06;77.59
63535;BME280;55128;50.230;18.944;2023-02-16T02:48:15;99270.03;;;-1.09;77.75
63535;BME280;55128;50.230;18.944;2023-02-16T02:53:16;99267.66;;;-0.89;78.85
63535;BME280;55128;50.230;18.944;2023-02-16T02:58:19;99279.00;;;-0.86;78.55
63535;BME280;55128;50.230;18.944;2023-02-16T03:03:48;99285.94;;;-0.85;78.18
63535;BME280;55128;50.230;18.944;2023-02-16T03:08:58;99284.94;;;-0.98;77.36
63535;BME280;55128;50.230;18.944;2023-02-16T03:14:16;99281.38;;;-1.04;78.07
63535;BME280;55128;50.230;18.944;2023-02-16T03:19:17;99277.22;;;-0.90;78.71
63535;BME280;55128;50.230;18.944;2023-02-16T03:24:36;99282.53;;;-0.81;79.25
63535;BME280;55128;50.230;18.944;2023-02-16T03:29:56;99275.69;;;-0.69;79.40
63535;BME280;55128;50.230;18.944;2023-02-16T03:34:58;99280.91;;;-0.69;79.29
63535;BME280;55128;50.230;18.944;2023-02-16T03:39:58;99267.97;;;-0.55;79.15
63535;BME280;55128;50.230;18.944;2023-02-16T03:45:18;99260.28;;;-0.42;79.40
63535;BME280;55128;50.230;18.944;2023-02-16T03:50:20;99253.34;;;-0.38;79.84
63535;BME280;55128;50.230;18.944;2023-02-16T03:55:20;99263.06;;;-0.22;79.60
63535;BME280;55128;50.230;18.944;2023-02-16T04:00:20;99259.56;;;-0.22;80.22
63535;BME280;55128;50.230;18.944;2023-02-16T04:05:21;99250.91;;;-0.16;79.55
63535;BME280;55128;50.230;18.944;2023-02-16T04:10:21;99246.59;;;-0.13;79.78
63535;BME280;55128;50.230;18.944;2023-02-16T04:15:25;99252.75;;;-0.05;79.84
63535;BME280;55128;50.230;18.944;2023-02-16T04:20:29;99249.34;;;0.10;79.85
63535;BME280;55128;50.230;18.944;2023-02-16T04:25:29;99237.13;;;0.00;80.05
63535;BME280;55128;50.230;18.944;2023-02-16T04:30:30;99238.91;;;0.09;80.47
63535;BME280;55128;50.230;18.944;2023-02-16T04:35:31;99239.75;;;0.09;80.01
63535;BME280;55128;50.230;18.944;2023-02-16T04:40:31;99232.81;;;0.10;80.09
63535;BME280;55128;50.230;18.944;2023-02-16T04:45:31;99234.56;;;0.12;79.89
63535;BME280;55128;50.230;18.944;2023-02-16T04:50:32;99230.22;;;0.10;80.44
63535;BME280;55128;50.230;18.944;2023-02-16T04:55:32;99231.09;;;0.12;80.38
63535;BME280;55128;50.230;18.944;2023-02-16T05:00:32;99241.59;;;0.24;80.38
63535;BME280;55128;50.230;18.944;2023-02-16T05:05:33;99232.88;;;0.19;80.51
63535;BME280;55128;50.230;18.944;2023-02-16T05:10:34;99235.50;;;0.19;80.32
63535;BME280;55128;50.230;18.944;2023-02-16T05:15:35;99228.53;;;0.19;80.25
63535;BME280;55128;50.230;18.944;2023-02-16T05:20:35;99226.81;;;0.23;79.93
63535;BME280;55128;50.230;18.944;2023-02-16T05:25:54;99224.19;;;0.23;79.75
63535;BME280;55128;50.230;18.944;2023-02-16T05:30:54;99228.53;;;0.24;80.05
63535;BME280;55128;50.230;18.944;2023-02-16T05:35:55;99230.28;;;0.19;79.97
63535;BME280;55128;50.230;18.944;2023-02-16T05:40:55;99231.09;;;0.12;80.56
63535;BME280;55128;50.230;18.944;2023-02-16T05:45:55;99229.41;;;0.17;80.37
63535;BME280;55128;50.230;18.944;2023-02-16T05:50:56;99225.94;;;0.21;79.90
63535;BME280;55128;50.230;18.944;2023-02-16T05:55:56;99231.22;;;0.30;80.16
63535;BME280;55128;50.230;18.944;2023-02-16T06:00:56;99238.19;;;0.37;80.42
63535;BME280;55128;50.230;18.944;2023-02-16T06:06:00;99243.44;;;0.41;81.12
63535;BME280;55128;50.230;18.944;2023-02-16T06:11:01;99255.75;;;0.72;80.25
63535;BME280;55128;50.230;18.944;2023-02-16T06:16:01;99259.25;;;0.81;80.22
63535;BME280;55128;50.230;18.944;2023-02-16T06:21:02;99262.03;;;1.22;79.96
63535;BME280;55128;50.230;18.944;2023-02-16T06:26:02;99263.78;;;1.46;79.25
63535;BME280;55128;50.230;18.944;2023-02-16T06:31:03;99256.81;;;1.54;78.70
63535;BME280;55128;50.230;18.944;2023-02-16T06:36:04;99271.63;;;1.80;78.60
63535;BME280;55128;50.230;18.944;2023-02-16T06:41:05;99267.16;;;2.51;76.57
63535;BME280;55128;50.230;18.944;2023-02-16T06:46:05;99268.66;;;3.16;75.43
63535;BME280;55128;50.230;18.944;2023-02-16T06:51:05;99272.78;;;3.57;74.13
63535;BME280;55128;50.230;18.944;2023-02-16T06:56:06;99265.25;;;4.93;73.19
63535;BME280;55128;50.230;18.944;2023-02-16T07:01:06;99268.22;;;5.37;68.49
63535;BME280;55128;50.230;18.944;2023-02-16T07:06:07;99265.13;;;5.64;68.21
63535;BME280;55128;50.230;18.944;2023-02-16T07:11:07;99269.94;;;6.90;66.08
63535;BME280;55128;50.230;18.944;2023-02-16T07:16:08;99276.53;;;7.52;62.33
63535;BME280;55128;50.230;18.944;2023-02-16T07:21:09;99276.47;;;8.27;62.42
63535;BME280;55128;50.230;18.944;2023-02-16T07:26:09;99268.25;;;9.02;58.07
63535;BME280;55128;50.230;18.944;2023-02-16T07:31:12;99267.41;;;8.70;57.08
63535;BME280;55128;50.230;18.944;2023-02-16T07:36:13;99267.84;;;9.45;56.35
63535;BME280;55128;50.230;18.944;2023-02-16T07:41:13;99274.19;;;9.10;54.96
63535;BME280;55128;50.230;18.944;2023-02-16T07:46:14;99280.22;;;9.15;55.36
63535;BME280;55128;50.230;18.944;2023-02-16T07:51:26;99271.81;;;9.30;53.95
63535;BME280;55128;50.230;18.944;2023-02-16T07:56:29;99279.63;;;9.91;53.68
63535;BME280;55128;50.230;18.944;2023-02-16T08:01:30;99268.69;;;10.27;51.93
63535;BME280;55128;50.230;18.944;2023-02-16T08:06:30;99262.38;;;11.53;49.86
63535;BME280;55128;50.230;18.944;2023-02-16T08:11:33;99263.69;;;11.41;48.33
63535;BME280;55128;50.230;18.944;2023-02-16T08:16:34;99261.56;;;11.73;46.88
63535;BME280;55128;50.230;18.944;2023-02-16T08:21:35;99268.56;;;11.97;46.10
63535;BME280;55128;50.230;18.944;2023-02-16T08:26:38;99269.63;;;11.02;48.03
63535;BME280;55128;50.230;18.944;2023-02-16T08:31:39;99265.16;;;10.79;48.97
63535;BME280;55128;50.230;18.944;2023-02-16T08:36:42;99265.81;;;10.85;49.23
63535;BME280;55128;50.230;18.944;2023-02-16T08:41:45;99265.78;;;12.63;45.31
63535;BME280;55128;50.230;18.944;2023-02-16T08:46:47;99269.19;;;14.00;42.20
63535;BME280;55128;50.230;18.944;2023-02-16T08:51:50;99260.53;;;13.20;42.78
63535;BME280;55128;50.230;18.944;2023-02-16T08:56:51;99272.06;;;14.14;41.44
63535;BME280;55128;50.230;18.944;2023-02-16T09:01:52;99282.97;;;15.30;38.39
63535;BME280;55128;50.230;18.944;2023-02-16T09:06:52;99274.94;;;16.10;37.02
63535;BME280;55128;50.230;18.944;2023-02-16T09:11:53;99274.66;;;15.84;37.00
63535;BME280;55128;50.230;18.944;2023-02-16T09:16:53;99283.31;;;16.50;35.39
63535;BME280;55128;50.230;18.944;2023-02-16T09:21:54;99276.75;;;16.40;35.48
63535;BME280;55128;50.230;18.944;2023-02-16T09:26:55;99275.59;;;16.60;35.73
63535;BME280;55128;50.230;18.944;2023-02-16T09:31:56;99286.75;;;17.54;33.01
63535;BME280;55128;50.230;18.944;2023-02-16T09:36:56;99291.00;;;18.27;31.53
63535;BME280;55128;50.230;18.944;2023-02-16T09:47:44;99292.22;;;18.49;31.31
63535;BME280;55128;50.230;18.944;2023-02-16T09:58:10;99278.16;;;18.45;31.03
63535;BME280;55128;50.230;18.944;2023-02-16T10:08:43;99276.63;;;18.81;30.58
63535;BME280;55128;50.230;18.944;2023-02-16T10:13:49;99269.13;;;17.92;31.48
63535;BME280;55128;50.230;18.944;2023-02-16T10:18:54;99267.97;;;19.14;30.50
63535;BME280;55128;50.230;18.944;2023-02-16T10:23:57;99262.34;;;18.13;30.74
63535;BME280;55128;50.230;18.944;2023-02-16T10:29:09;99257.09;;;17.70;31.87
63535;BME280;55128;50.230;18.944;2023-02-16T10:44:46;99235.00;;;15.75;34.45
63535;BME280;55128;50.230;18.944;2023-02-16T10:49:49;99221.84;;;13.86;38.38
63535;BME280;55128;50.230;18.944;2023-02-16T10:54:51;99212.72;;;13.73;39.34
63535;BME280;55128;50.230;18.944;2023-02-16T10:59:52;99206.44;;;13.37;40.10
63535;BME280;55128;50.230;18.944;2023-02-16T11:04:54;99200.72;;;13.26;39.80
63535;BME280;55128;50.230;18.944;2023-02-16T11:09:57;99195.53;;;13.04;40.64
63535;BME280;55128;50.230;18.944;2023-02-16T11:25:30;99175.38;;;11.56;45.87
63535;BME280;55128;50.230;18.944;2023-02-16T11:30:35;99167.06;;;11.20;45.54
63535;BME280;55128;50.230;18.944;2023-02-16T11:35:40;99159.66;;;10.82;46.44
63535;BME280;55128;50.230;18.944;2023-02-16T11:40:50;99160.50;;;10.36;47.81
63535;BME280;55128;50.230;18.944;2023-02-16T11:46:03;99158.91;;;10.79;46.88
63535;BME280;55128;50.230;18.944;2023-02-16T11:51:10;99164.72;;;10.88;47.34
63535;BME280;55128;50.230;18.944;2023-02-16T11:56:22;99147.25;;;10.36;48.42
63535;BME280;55128;50.230;18.944;2023-02-16T12:01:30;99148.28;;;10.06;48.83
63535;BME280;55128;50.230;18.944;2023-02-16T12:06:45;99148.13;;;10.36;49.11
63535;BME280;55128;50.230;18.944;2023-02-16T12:12:05;99134.91;;;10.58;48.59
63535;BME280;55128;50.230;18.944;2023-02-16T12:17:20;99142.41;;;10.70;49.00
63535;BME280;55128;50.230;18.944;2023-02-16T12:22:42;99129.03;;;10.74;48.39
63535;BME280;55128;50.230;18.944;2023-02-16T12:43:52;99126.63;;;10.66;48.28
63535;BME280;55128;50.230;18.944;2023-02-16T12:49:00;99122.66;;;11.00;47.32
63535;BME280;55128;50.230;18.944;2023-02-16T12:54:13;99103.94;;;10.81;48.32
63535;BME280;55128;50.230;18.944;2023-02-16T12:59:21;99110.28;;;10.29;47.93
63535;BME280;55128;50.230;18.944;2023-02-16T13:15:49;99089.91;;;10.30;49.17
63535;BME280;55128;50.230;18.944;2023-02-16T13:20:23;99080.84;;;10.37;49.55
63535;BME280;55128;50.230;18.944;2023-02-16T13:46:38;99068.78;;;9.28;50.88
63535;BME280;55128;50.230;18.944;2023-02-16T13:51:43;99057.22;;;9.30;51.08
63535;BME280;55128;50.230;18.944;2023-02-16T13:56:45;99059.50;;;9.14;51.61
63535;BME280;55128;50.230;18.944;2023-02-16T14:01:50;99063.53;;;9.00;51.78
63535;BME280;55128;50.230;18.944;2023-02-16T14:12:17;99060.13;;;8.96;52.56
63535;BME280;55128;50.230;18.944;2023-02-16T14:27:52;99059.31;;;8.66;53.49
63535;BME280;55128;50.230;18.944;2023-02-16T14:33:19;99052.63;;;8.54;53.68
63535;BME280;55128;50.230;18.944;2023-02-16T14:38:32;99053.25;;;8.62;53.54
63535;BME280;55128;50.230;18.944;2023-02-16T14:43:45;99063.09;;;8.57;53.79
63535;BME280;55128;50.230;18.944;2023-02-16T14:59:45;99062.75;;;8.08;55.48
63535;BME280;55128;50.230;18.944;2023-02-16T15:04:47;99054.03;;;8.05;56.32
63535;BME280;55128;50.230;18.944;2023-02-16T15:09:52;99048.97;;;7.97;55.92
63535;BME280;55128;50.230;18.944;2023-02-16T15:15:02;99051.41;;;7.73;55.99
63535;BME280;55128;50.230;18.944;2023-02-16T15:20:35;99063.19;;;7.60;56.58
63535;BME280;55128;50.230;18.944;2023-02-16T15:25:39;99060.31;;;7.36;57.41
63535;BME280;55128;50.230;18.944;2023-02-16T15:30:45;99065.69;;;7.32;58.22
63535;BME280;55128;50.230;18.944;2023-02-16T15:36:00;99063.25;;;7.24;57.76
63535;BME280;55128;50.230;18.944;2023-02-16T15:41:05;99056.09;;;6.93;58.35
63535;BME280;55128;50.230;18.944;2023-02-16T15:46:13;99047.56;;;6.82;58.53
63535;BME280;55128;50.230;18.944;2023-02-16T15:51:30;99061.34;;;6.57;59.23
63535;BME280;55128;50.230;18.944;2023-02-16T15:56:43;99050.13;;;6.48;59.68
63535;BME280;55128;50.230;18.944;2023-02-16T16:01:44;99040.78;;;6.33;60.57
63535;BME280;55128;50.230;18.944;2023-02-16T16:06:46;99048.28;;;6.11;61.11
63535;BME280;55128;50.230;18.944;2023-02-16T16:11:49;99047.94;;;5.82;61.76
63535;BME280;55128;50.230;18.944;2023-02-16T16:16:51;99037.16;;;5.50;62.65
63535;BME280;55128;50.230;18.944;2023-02-16T16:21:53;99041.75;;;5.38;62.08
63535;BME280;55128;50.230;18.944;2023-02-16T16:26:57;99045.75;;;5.11;63.61
63535;BME280;55128;50.230;18.944;2023-02-16T16:31:57;99043.28;;;5.00;64.01
63535;BME280;55128;50.230;18.944;2023-02-16T16:36:58;99048.69;;;4.93;64.21
63535;BME280;55128;50.230;18.944;2023-02-16T16:52:45;99054.59;;;4.51;64.94
63535;BME280;55128;50.230;18.944;2023-02-16T16:57:48;99041.72;;;4.31;65.71
63535;BME280;55128;50.230;18.944;2023-02-16T17:02:49;99044.47;;;4.22;66.76
63535;BME280;55128;50.230;18.944;2023-02-16T17:07:49;99047.09;;;4.20;66.01
63535;BME280;55128;50.230;18.944;2023-02-16T17:12:53;99052.47;;;4.13;65.94
63535;BME280;55128;50.230;18.944;2023-02-16T17:17:55;99050.03;;;3.99;66.25
63535;BME280;55128;50.230;18.944;2023-02-16T17:22:55;99045.84;;;3.82;66.55
63535;BME280;55128;50.230;18.944;2023-02-16T17:27:56;99052.19;;;3.63;66.81
63535;BME280;55128;50.230;18.944;2023-02-16T17:32:56;99049.69;;;3.50;67.78
63535;BME280;55128;50.230;18.944;2023-02-16T17:37:57;99049.06;;;3.28;68.01
63535;BME280;55128;50.230;18.944;2023-02-16T17:42:58;99039.47;;;3.23;67.76
63535;BME280;55128;50.230;18.944;2023-02-16T17:47:58;99039.59;;;3.10;67.63
63535;BME280;55128;50.230;18.944;2023-02-16T17:53:00;99044.25;;;2.78;68.55
63535;BME280;55128;50.230;18.944;2023-02-16T17:58:00;99045.19;;;2.69;69.51
63535;BME280;55128;50.230;18.944;2023-02-16T18:03:00;99049.59;;;2.65;69.82
63535;BME280;55128;50.230;18.944;2023-02-16T18:08:01;99054.91;;;2.55;70.39
63535;BME280;55128;50.230;18.944;2023-02-16T18:13:03;99054.94;;;2.47;70.28
63535;BME280;55128;50.230;18.944;2023-02-16T18:18:04;99062.00;;;2.36;70.58
63535;BME280;55128;50.230;18.944;2023-02-16T18:23:05;99062.97;;;2.19;70.69
63535;BME280;55128;50.230;18.944;2023-02-16T18:28:06;99066.47;;;2.15;70.86
63535;BME280;55128;50.230;18.944;2023-02-16T18:33:06;99072.66;;;2.05;70.62
63535;BME280;55128;50.230;18.944;2023-02-16T18:38:07;99073.53;;;1.98;70.96
63535;BME280;55128;50.230;18.944;2023-02-16T18:43:07;99069.19;;;1.90;71.26
63535;BME280;55128;50.230;18.944;2023-02-16T18:48:08;99069.22;;;1.81;71.38
63535;BME280;55128;50.230;18.944;2023-02-16T18:53:10;99070.13;;;1.77;71.35
63535;BME280;55128;50.230;18.944;2023-02-16T19:03:20;99066.69;;;1.55;71.62
63535;BME280;55128;50.230;18.944;2023-02-16T19:08:24;99076.34;;;1.31;72.54
63535;BME280;55128;50.230;18.944;2023-02-16T19:13:24;99075.47;;;1.26;71.85
63535;BME280;55128;50.230;18.944;2023-02-16T19:18:25;99066.75;;;1.21;72.87
63535;BME280;55128;50.230;18.944;2023-02-16T19:23:28;99074.63;;;1.07;74.12
63535;BME280;55128;50.230;18.944;2023-02-16T19:28:28;99076.38;;;1.02;72.76
63535;BME280;55128;50.230;18.944;2023-02-16T19:33:29;99084.22;;;0.94;73.13
63535;BME280;55128;50.230;18.944;2023-02-16T19:38:29;99088.56;;;0.94;73.50
63535;BME280;55128;50.230;18.944;2023-02-16T19:43:30;99076.38;;;0.87;73.71
63535;BME280;55128;50.230;18.944;2023-02-16T19:48:30;99060.66;;;0.82;73.15
63535;BME280;55128;50.230;18.944;2023-02-16T19:53:31;99058.06;;;0.74;73.54
63535;BME280;55128;50.230;18.944;2023-02-16T19:58:32;99059.78;;;0.63;73.76
63535;BME280;55128;50.230;18.944;2023-02-16T20:03:32;99058.03;;;0.56;74.27
63535;BME280;55128;50.230;18.944;2023-02-16T20:08:33;99058.91;;;0.50;74.42
63535;BME280;55128;50.230;18.944;2023-02-16T20:13:34;99059.75;;;0.45;74.93
63535;BME280;55128;50.230;18.944;2023-02-16T20:18:35;99067.59;;;0.32;75.59
63535;BME280;55128;50.230;18.944;2023-02-16T20:23:36;99058.88;;;0.35;75.55
63535;BME280;55128;50.230;18.944;2023-02-16T20:28:36;99065.84;;;0.37;74.64
63535;BME280;55128;50.230;18.944;2023-02-16T20:33:37;99062.34;;;0.31;74.84
63535;BME280;55128;50.230;18.944;2023-02-16T20:38:37;99064.94;;;0.28;74.72
63535;BME280;55128;50.230;18.944;2023-02-16T20:43:38;99069.28;;;0.21;75.03
63535;BME280;55128;50.230;18.944;2023-02-16T20:48:38;99061.44;;;0.18;74.85
63535;BME280;55128;50.230;18.944;2023-02-16T20:53:39;99057.91;;;0.04;75.97
63535;BME280;55128;50.230;18.944;2023-02-16T20:58:42;99064.03;;;0.09;75.96
63535;BME280;55128;50.230;18.944;2023-02-16T21:03:42;99063.16;;;0.13;75.63
63535;BME280;55128;50.230;18.944;2023-02-16T21:08:43;99058.81;;;0.09;75.23
63535;BME280;55128;50.230;18.944;2023-02-16T21:13:44;99052.69;;;-0.01;75.65
63535;BME280;55128;50.230;18.944;2023-02-16T21:18:44;99060.50;;;-0.09;75.95
63535;BME280;55128;50.230;18.944;2023-02-16T21:30:00;99056.16;;;-0.05;75.49
63535;BME280;55128;50.230;18.944;2023-02-16T21:35:01;99050.06;;;-0.09;75.45
63535;BME280;55128;50.230;18.944;2023-02-16T21:40:09;99044.81;;;-0.13;75.34
63535;BME280;55128;50.230;18.944;2023-02-16T21:45:32;99046.53;;;-0.20;75.70
63535;BME280;55128;50.230;18.944;2023-02-16T21:50:35;99049.13;;;-0.26;76.40
63535;BME280;55128;50.230;18.944;2023-02-16T21:55:37;99054.31;;;-0.31;76.20
63535;BME280;55128;50.230;18.944;2023-02-16T22:00:56;99044.69;;;-0.38;76.50
63535;BME280;55128;50.230;18.944;2023-02-16T22:06:00;99040.38;;;-0.34;75.82
63535;BME280;55128;50.230;18.944;2023-02-16T22:11:10;99043.88;;;-0.29;75.96
63535;BME280;55128;50.230;18.944;2023-02-16T22:16:13;99049.09;;;-0.29;75.80
63535;BME280;55128;50.230;18.944;2023-02-16T22:21:15;99048.19;;;-0.34;75.60
63535;BME280;55128;50.230;18.944;2023-02-16T22:26:22;99037.72;;;-0.42;76.23
63535;BME280;55128;50.230;18.944;2023-02-16T22:31:25;99043.00;;;-0.31;75.71
63535;BME280;55128;50.230;18.944;2023-02-16T22:36:26;99040.41;;;-0.30;76.62
63535;BME280;55128;50.230;18.944;2023-02-16T22:41:26;99037.78;;;-0.27;76.39
63535;BME280;55128;50.230;18.944;2023-02-16T22:46:27;99050.88;;;-0.24;75.84
63535;BME280;55128;50.230;18.944;2023-02-16T22:51:29;99040.47;;;-0.21;75.85
63535;BME280;55128;50.230;18.944;2023-02-16T22:56:30;99040.47;;;-0.14;75.99
63535;BME280;55128;50.230;18.944;2023-02-16T23:01:31;99042.19;;;-0.13;75.88
63535;BME280;55128;50.230;18.944;2023-02-16T23:06:34;99043.94;;;-0.14;75.79
63535;BME280;55128;50.230;18.944;2023-02-16T23:11:35;99051.78;;;-0.12;75.36
63535;BME280;55128;50.230;18.944;2023-02-16T23:16:35;99050.03;;;-0.18;75.14
63535;BME280;55128;50.230;18.944;2023-02-16T23:21:36;99048.22;;;-0.27;75.26
63535;BME280;55128;50.230;18.944;2023-02-16T23:26:36;99049.09;;;-0.29;74.80
63535;BME280;55128;50.230;18.944;2023-02-16T23:31:38;99029.09;;;-0.30;75.60
63535;BME280;55128;50.230;18.944;2023-02-16T23:36:39;99023.88;;;-0.29;75.97
63535;BME280;55128;50.230;18.944;2023-02-16T23:41:41;99019.53;;;-0.31;76.02
63535;BME280;55128;50.230;18.944;2023-02-16T23:46:41;99019.41;;;-0.53;76.74
63535;BME280;55128;50.230;18.944;2023-02-16T23:51:41;99010.75;;;-0.50;76.49
63535;BME280;55128;50.230;18.944;2023-02-16T23:56:42;99002.13;;;-0.38;76.23
